San Acacia, NM (87831)

12:16 PM MST on March 04, 2015 (GMT -0700)
Community Road | Change Station
CLOSE
Current Station
Personal Weather Station
Location: Polvadera, NM
Elevation: 4645 ft
Nearby Weather Stations

Elev 4645 ft 34.20 °N, 106.91 °W | Updated 2 seconds ago

Clear
Clear
54.5 °F
Feels Like 54.5 °F
N
3.1
Wind Variable Wind from WSW
Gusts 6.3 mph

Today
High -- | Low -- °F
--% Chance of Precip.
Yesterday
High -- | Low -- °F
Precip. -- in
6:32 AM 6:06 PM
Waxing Gibbous, 99% visible
Pressure 29.97 in
Visibility 10.0 miles
Clouds Mostly Cloudy 6500 ft
Overcast 7500 ft
Dew Point 25 °F
Humidity 32%
Rainfall 0.00 in
Snow Depth Not available.
UV 2 out of 12
Pollen 6.20 out of 12
Air Quality Not available.
Flu Activity Not available.
METAR KE80 041855Z AUTO 32009G14KT 10SM BKN065 OVC075 09/M06 A2997 RMK AO2 T00931064

More Conditions Fewer Conditions

Pressure 29.97 in
Visibility 10.0 miles
Clouds Mostly Cloudy 6500 ft
Overcast 7500 ft
Dew Point 25 °F
Humidity 32%
Rainfall 0.00 in
Snow Depth Not available.
UV 2 out of 12
Pollen 6.20 out of 12
Air Quality Not available.
Flu Activity Not available.
METAR KE80 041855Z AUTO 32009G14KT 10SM BKN065 OVC075 09/M06 A2997 RMK AO2 T00931064

More Conditions Fewer Conditions

10-Day Weather Forecast

Almanac

Astronomy

Mar. 04, 2015 Rise Set
Actual Time
Civil Twilight
Nautical Twilight
Astronomical Twilight
Moon
Length of Visible Light
Length of Day
Tomorrow will be .
, % of the Moon is Illuminated

Today's Extremes

State Highs State Lows

Community

WunderPhotos

Upload Photos

1,802,543 photos uploaded!

WunderBlogs® & News

Nearby

Air Quality

  Air Quality AQ Index Pollutant
Not available.

Snow Depth

Station Depth Elevation

Earthquake Activity

City Distance Mag. Time & Date
Minimum magnitude displayed is 2.5.

Coastal Water Temperatures

Place Temperature

Nearby Weather Stations